Time;durP1;ratioP1;P1;durP2;ratioP2;P2;SDS_P1;SDS_P2;PMS_P1;PMS_P2;Temp;Humidity;BMP_temperature;BMP_pressure;BME280_temperature;BME280_humidity;BME280_pressure;Samples;Min_cycle;Max_cycle;Signal;HPM_P1;HPM_P2
2021/08/16 00:02:01;;;;;;;12.50;10.35;;;;;;;;;;5033717;28;20075;-75
2021/08/16 00:04:27;;;;;;;10.70;9.50;;;;;;;;;;5033445;28;20030;-75
2021/08/16 00:06:53;;;;;;;11.23;10.20;;;;;;;;;;5033442;28;20057;-75
2021/08/16 00:09:19;;;;;;;12.25;9.90;;;;;;;;;;5033172;28;20025;-75
2021/08/16 00:11:46;;;;;;;10.68;9.75;;;;;;;;;;5033270;28;20052;-75
2021/08/16 00:14:12;;;;;;;12.65;9.10;;;;;;;;;;5033737;28;20034;-75
2021/08/16 00:16:38;;;;;;;11.93;9.93;;;;;;;;;;5032987;28;20041;-75
2021/08/16 00:19:04;;;;;;;11.15;9.95;;;;;;;;;;5033718;28;20033;-75
2021/08/16 00:21:30;;;;;;;10.65;9.45;;;;;;;;;;5033048;28;20049;-75
2021/08/16 00:23:56;;;;;;;10.75;9.75;;;;;;;;;;5033482;28;20044;-75
2021/08/16 00:26:22;;;;;;;11.20;10.05;;;;;;;;;;5033128;28;20468;-75
2021/08/16 00:28:48;;;;;;;11.30;10.05;;;;;;;;;;5033744;28;20498;-75
2021/08/16 00:31:14;;;;;;;15.40;10.73;;;;;;;;;;5035358;28;20451;-76
2021/08/16 00:33:40;;;;;;;13.43;9.77;;;;;;;;;;5037379;28;20064;-76
2021/08/16 00:36:06;;;;;;;11.48;8.98;;;;;;;;;;5037072;28;20402;-76
2021/08/16 00:38:32;;;;;;;9.73;8.68;;;;;;;;;;5036627;28;20029;-76
2021/08/16 00:40:58;;;;;;;10.10;9.30;;;;;;;;;;5036862;28;20024;-75
2021/08/16 00:43:24;;;;;;;16.77;9.77;;;;;;;;;;5037137;28;20036;-75
2021/08/16 00:45:50;;;;;;;10.73;9.68;;;;;;;;;;5036926;28;20526;-75
2021/08/16 00:48:16;;;;;;;10.38;9.23;;;;;;;;;;5036566;28;20475;-76
2021/08/16 00:50:43;;;;;;;14.75;10.27;;;;;;;;;;5036523;28;20029;-75
2021/08/16 00:53:09;;;;;;;9.65;8.82;;;;;;;;;;5036807;28;20032;-75
2021/08/16 00:55:35;;;;;;;12.80;10.43;;;;;;;;;;5036174;28;20039;-75
2021/08/16 00:58:01;;;;;;;8.43;7.68;;;;;;;;;;5036293;28;20076;-75
2021/08/16 01:00:27;;;;;;;12.20;9.40;;;;;;;;;;5036436;28;20070;-76
2021/08/16 01:02:53;;;;;;;9.88;8.90;;;;;;;;;;5036358;28;20032;-76
2021/08/16 01:05:19;;;;;;;9.48;8.50;;;;;;;;;;5036484;28;20030;-75
2021/08/16 01:07:46;;;;;;;12.98;9.05;;;;;;;;;;5036297;28;20112;-75
2021/08/16 01:10:13;;;;;;;10.52;9.30;;;;;;;;;;5036055;28;20025;-75
2021/08/16 01:12:39;;;;;;;10.07;8.88;;;;;;;;;;5036190;28;20091;-76
2021/08/16 01:15:06;;;;;;;13.35;9.85;;;;;;;;;;5036491;28;20060;-75
2021/08/16 01:17:32;;;;;;;11.90;9.73;;;;;;;;;;5035886;28;20021;-75
2021/08/16 01:19:58;;;;;;;10.13;9.25;;;;;;;;;;5035992;28;20087;-75
2021/08/16 01:22:24;;;;;;;10.35;9.35;;;;;;;;;;5035783;28;20399;-75
2021/08/16 01:24:50;;;;;;;10.75;8.57;;;;;;;;;;5035975;28;20372;-75
2021/08/16 01:27:16;;;;;;;10.18;9.18;;;;;;;;;;5036429;28;20479;-75
2021/08/16 01:29:42;;;;;;;10.57;9.57;;;;;;;;;;5036181;28;20026;-75
2021/08/16 01:32:09;;;;;;;9.73;8.82;;;;;;;;;;5036150;28;20035;-75
2021/08/16 01:34:35;;;;;;;12.05;9.38;;;;;;;;;;5035582;28;20040;-76
2021/08/16 01:37:01;;;;;;;12.98;10.45;;;;;;;;;;5035879;28;20037;-76
2021/08/16 01:39:27;;;;;;;10.00;8.93;;;;;;;;;;5035579;28;20017;-76
2021/08/16 01:41:53;;;;;;;11.07;10.18;;;;;;;;;;5035857;28;20171;-76
2021/08/16 01:44:22;;;;;;;12.43;10.80;;;;;;;;;;5035083;28;20065;-76
2021/08/16 01:46:48;;;;;;;10.20;9.15;;;;;;;;;;5036124;28;20026;-76
2021/08/16 01:49:14;;;;;;;10.45;9.32;;;;;;;;;;5035723;28;20029;-76
2021/08/16 01:51:40;;;;;;;12.13;8.95;;;;;;;;;;5035394;28;20552;-75
2021/08/16 01:54:06;;;;;;;10.60;9.60;;;;;;;;;;5035196;28;20526;-76
2021/08/16 01:56:32;;;;;;;8.68;7.88;;;;;;;;;;5035271;28;20033;-76
2021/08/16 01:58:58;;;;;;;10.40;9.40;;;;;;;;;;5035804;28;20065;-76
2021/08/16 02:01:25;;;;;;;11.77;9.35;;;;;;;;;;5035209;28;20035;-76
2021/08/16 02:03:51;;;;;;;11.88;9.88;;;;;;;;;;5035532;28;20029;-75
2021/08/16 02:06:17;;;;;;;10.90;7.80;;;;;;;;;;5035059;28;20168;-75
2021/08/16 02:08:43;;;;;;;9.68;8.40;;;;;;;;;;5034819;28;20026;-75
2021/08/16 02:11:09;;;;;;;9.25;8.35;;;;;;;;;;5035101;28;20025;-75
2021/08/16 02:13:35;;;;;;;10.43;9.52;;;;;;;;;;5035279;28;20026;-75
2021/08/16 02:16:01;;;;;;;10.80;9.73;;;;;;;;;;5034788;28;20204;-75
2021/08/16 02:18:27;;;;;;;12.27;8.75;;;;;;;;;;5034279;28;20533;-75
2021/08/16 02:20:54;;;;;;;9.35;8.45;;;;;;;;;;5034836;28;20480;-75
2021/08/16 02:23:20;;;;;;;11.07;9.93;;;;;;;;;;5034687;28;20479;-75
2021/08/16 02:25:46;;;;;;;9.88;8.38;;;;;;;;;;5034839;28;20091;-75
2021/08/16 02:28:16;;;;;;;12.15;8.93;;;;;;;;;;5034906;28;20030;-75
2021/08/16 02:30:42;;;;;;;10.23;9.23;;;;;;;;;;5034481;28;20025;-76
2021/08/16 02:33:08;;;;;;;11.73;8.57;;;;;;;;;;5034925;28;20495;-76
2021/08/16 02:35:34;;;;;;;10.48;9.20;;;;;;;;;;5034922;28;20495;-75
2021/08/16 02:38:00;;;;;;;9.57;8.57;;;;;;;;;;5034322;28;20033;-75
2021/08/16 02:40:26;;;;;;;10.85;9.73;;;;;;;;;;5034398;28;20025;-75
2021/08/16 02:42:52;;;;;;;9.68;8.65;;;;;;;;;;5034503;28;20029;-75
2021/08/16 02:45:18;;;;;;;9.63;8.80;;;;;;;;;;5034337;28;20025;-75
2021/08/16 02:47:44;;;;;;;11.45;10.13;;;;;;;;;;5034296;28;20029;-75
2021/08/16 02:50:10;;;;;;;9.52;8.23;;;;;;;;;;5034469;28;20073;-75
2021/08/16 02:52:37;;;;;;;9.45;8.55;;;;;;;;;;5034590;28;20079;-76
2021/08/16 02:55:03;;;;;;;10.60;9.55;;;;;;;;;;5035005;28;20038;-76
2021/08/16 02:57:30;;;;;;;10.05;8.90;;;;;;;;;;5034944;28;20112;-76
2021/08/16 02:59:56;;;;;;;9.48;8.57;;;;;;;;;;5034442;28;20045;-76
2021/08/16 03:02:22;;;;;;;35.05;16.73;;;;;;;;;;5034101;28;20097;-76
2021/08/16 03:04:48;;;;;;;19.02;15.38;;;;;;;;;;5034426;28;20025;-75
2021/08/16 03:07:15;;;;;;;25.88;14.13;;;;;;;;;;5033904;28;20043;-75
2021/08/16 03:09:41;;;;;;;15.57;11.77;;;;;;;;;;5034025;28;20029;-75
2021/08/16 03:12:07;;;;;;;12.88;10.48;;;;;;;;;;5034057;28;20040;-75
2021/08/16 03:14:33;;;;;;;13.32;11.23;;;;;;;;;;5033837;28;20029;-76
2021/08/16 03:16:59;;;;;;;17.17;10.90;;;;;;;;;;5034083;28;20037;-75
2021/08/16 03:19:25;;;;;;;23.25;10.93;;;;;;;;;;5033467;28;20487;-75
2021/08/16 03:21:51;;;;;;;24.88;11.10;;;;;;;;;;5033180;28;20032;-76
2021/08/16 03:24:18;;;;;;;15.85;11.07;;;;;;;;;;5034155;28;20025;-75
2021/08/16 03:26:44;;;;;;;16.15;10.95;;;;;;;;;;5034089;28;20033;-75
2021/08/16 03:29:10;;;;;;;15.00;10.75;;;;;;;;;;5033891;28;20057;-75
2021/08/16 03:31:36;;;;;;;12.82;10.13;;;;;;;;;;5033152;28;20028;-75
2021/08/16 03:34:02;;;;;;;13.30;9.93;;;;;;;;;;5033956;28;20021;-75
2021/08/16 03:36:28;;;;;;;12.90;10.55;;;;;;;;;;5033036;28;20044;-75
2021/08/16 03:38:54;;;;;;;23.20;10.73;;;;;;;;;;5033747;28;20021;-75
2021/08/16 03:41:20;;;;;;;11.50;9.98;;;;;;;;;;5033252;28;20036;-76
2021/08/16 03:43:46;;;;;;;9.50;8.35;;;;;;;;;;5034002;28;20028;-75
2021/08/16 03:46:13;;;;;;;16.17;9.52;;;;;;;;;;5033590;28;20467;-75
2021/08/16 03:48:39;;;;;;;12.75;9.82;;;;;;;;;;5033227;28;20113;-75
2021/08/16 03:51:05;;;;;;;11.57;9.00;;;;;;;;;;5033405;28;20025;-75
2021/08/16 03:53:31;;;;;;;11.32;8.82;;;;;;;;;;5033626;28;20026;-75
2021/08/16 03:55:57;;;;;;;14.70;10.32;;;;;;;;;;5033699;28;20099;-76
2021/08/16 03:58:23;;;;;;;10.32;9.32;;;;;;;;;;5033051;28;20057;-76
2021/08/16 04:00:49;;;;;;;9.55;8.75;;;;;;;;;;5033774;28;20023;-76
2021/08/16 04:03:15;;;;;;;14.02;10.35;;;;;;;;;;5033616;28;20026;-76
2021/08/16 04:05:41;;;;;;;11.23;9.48;;;;;;;;;;5033854;28;20037;-76
2021/08/16 04:08:07;;;;;;;16.63;9.20;;;;;;;;;;5037667;28;20033;-76
2021/08/16 04:10:33;;;;;;;10.40;9.40;;;;;;;;;;5037327;28;20033;-75
2021/08/16 04:12:59;;;;;;;12.55;9.77;;;;;;;;;;5037903;28;20483;-75
2021/08/16 04:15:25;;;;;;;11.05;9.38;;;;;;;;;;5036679;28;20493;-75
2021/08/16 04:17:51;;;;;;;11.55;8.68;;;;;;;;;;5037341;28;20083;-76
2021/08/16 04:20:18;;;;;;;20.77;9.27;;;;;;;;;;5037422;28;20467;-76
2021/08/16 04:22:44;;;;;;;10.52;9.43;;;;;;;;;;5037001;28;20108;-76
2021/08/16 04:25:11;;;;;;;13.05;9.32;;;;;;;;;;5037036;28;20387;-75
2021/08/16 04:27:38;;;;;;;11.32;10.20;;;;;;;;;;5037497;28;20029;-76
2021/08/16 04:30:04;;;;;;;10.52;9.45;;;;;;;;;;5037357;28;20160;-76
2021/08/16 04:32:31;;;;;;;10.73;9.52;;;;;;;;;;5036619;28;20092;-76
2021/08/16 04:34:57;;;;;;;11.05;9.50;;;;;;;;;;5036881;28;20128;-75
2021/08/16 04:37:23;;;;;;;10.88;8.48;;;;;;;;;;5036737;28;20060;-76
2021/08/16 04:39:49;;;;;;;14.38;10.07;;;;;;;;;;5036778;28;20025;-76
2021/08/16 04:42:15;;;;;;;11.63;9.88;;;;;;;;;;5037170;28;20033;-77
2021/08/16 04:44:41;;;;;;;13.38;9.57;;;;;;;;;;5036556;28;20025;-77
2021/08/16 04:47:07;;;;;;;12.63;10.32;;;;;;;;;;5036984;28;20026;-77
2021/08/16 04:49:34;;;;;;;13.27;10.27;;;;;;;;;;5036812;28;20032;-77
2021/08/16 04:52:00;;;;;;;12.65;9.57;;;;;;;;;;5036646;28;20029;-77
2021/08/16 04:54:26;;;;;;;11.93;9.30;;;;;;;;;;5036787;28;20113;-77
2021/08/16 04:56:52;;;;;;;16.08;9.23;;;;;;;;;;5036405;28;20376;-78
2021/08/16 04:59:18;;;;;;;12.25;9.73;;;;;;;;;;5036523;28;20049;-77
2021/08/16 05:01:45;;;;;;;17.70;9.48;;;;;;;;;;5034065;28;20087;-76
2021/08/16 05:04:11;;;;;;;9.35;8.45;;;;;;;;;;5035980;28;20025;-76
2021/08/16 05:06:42;;;;;;;9.45;8.48;;;;;;;;;;5036340;28;20026;-75
2021/08/16 05:09:08;;;;;;;10.27;9.27;;;;;;;;;;5036466;28;20145;-75
2021/08/16 05:11:34;;;;;;;10.52;9.50;;;;;;;;;;5036382;28;20495;-77
2021/08/16 05:14:00;;;;;;;14.07;10.55;;;;;;;;;;5035440;28;20026;-76
2021/08/16 05:16:27;;;;;;;9.25;8.30;;;;;;;;;;5036874;28;20033;-80
2021/08/16 05:18:53;;;;;;;11.15;9.00;;;;;;;;;;5035312;28;20052;-77
2021/08/16 05:21:20;;;;;;;15.48;9.88;;;;;;;;;;5036005;28;20030;-75
2021/08/16 05:23:46;;;;;;;11.75;9.27;;;;;;;;;;5035312;28;20105;-75
2021/08/16 05:26:12;;;;;;;11.88;9.63;;;;;;;;;;5036064;28;20033;-74
2021/08/16 05:28:38;;;;;;;13.88;10.45;;;;;;;;;;5036046;28;20550;-77
2021/08/16 05:31:04;;;;;;;17.33;9.93;;;;;;;;;;5036180;28;20038;-78
2021/08/16 05:33:30;;;;;;;12.43;10.30;;;;;;;;;;5034111;28;20463;-75
2021/08/16 05:35:56;;;;;;;9.77;8.90;;;;;;;;;;5035905;28;20088;-72
2021/08/16 05:38:23;;;;;;;13.48;9.32;;;;;;;;;;5036033;28;20026;-80
2021/08/16 05:40:49;;;;;;;10.40;9.40;;;;;;;;;;5036837;28;20041;-75
2021/08/16 05:43:15;;;;;;;13.63;9.13;;;;;;;;;;5034736;28;20051;-77
2021/08/16 05:45:41;;;;;;;9.88;9.00;;;;;;;;;;5035885;28;20490;-76
2021/08/16 05:48:07;;;;;;;10.77;9.77;;;;;;;;;;5035666;28;20018;-72
2021/08/16 05:50:33;;;;;;;11.98;8.95;;;;;;;;;;5035577;28;20026;-72
2021/08/16 05:52:59;;;;;;;14.18;9.93;;;;;;;;;;5034494;28;20119;-75
2021/08/16 05:55:25;;;;;;;11.13;8.73;;;;;;;;;;5035903;28;20030;-77
2021/08/16 05:57:51;;;;;;;9.95;8.95;;;;;;;;;;5035435;28;20036;-73
2021/08/16 06:00:19;;;;;;;10.05;9.15;;;;;;;;;;5036487;28;20030;-75
2021/08/16 06:02:45;;;;;;;10.75;8.80;;;;;;;;;;5035993;28;20025;-75
2021/08/16 06:05:11;;;;;;;11.35;8.48;;;;;;;;;;5035114;28;20025;-75
2021/08/16 06:07:37;;;;;;;12.95;9.18;;;;;;;;;;5033821;28;20108;-75
2021/08/16 06:10:04;;;;;;;14.68;9.00;;;;;;;;;;5034829;28;20029;-75
2021/08/16 06:12:30;;;;;;;14.50;9.60;;;;;;;;;;5030451;28;20029;-74
2021/08/16 06:14:56;;;;;;;11.65;9.05;;;;;;;;;;5034625;28;20120;-74
2021/08/16 06:17:22;;;;;;;15.75;8.68;;;;;;;;;;5033938;28;20029;-74
2021/08/16 06:19:48;;;;;;;13.63;8.93;;;;;;;;;;5033425;28;20029;-74
2021/08/16 06:22:14;;;;;;;37.35;8.30;;;;;;;;;;5034583;28;20083;-74
2021/08/16 06:24:40;;;;;;;12.27;8.18;;;;;;;;;;5034777;28;20041;-74
2021/08/16 06:27:06;;;;;;;17.23;7.50;;;;;;;;;;5034670;28;20077;-74
2021/08/16 06:29:32;;;;;;;11.15;8.65;;;;;;;;;;5034051;28;20391;-73
2021/08/16 06:31:59;;;;;;;10.48;8.43;;;;;;;;;;5034579;28;20029;-75
2021/08/16 06:34:25;;;;;;;12.15;10.60;;;;;;;;;;5033110;28;20423;-74
2021/08/16 06:36:55;;;;;;;11.60;10.02;;;;;;;;;;5034083;28;20060;-74
2021/08/16 06:39:21;;;;;;;13.77;9.80;;;;;;;;;;5034342;28;20057;-73
2021/08/16 06:41:48;;;;;;;13.55;8.75;;;;;;;;;;5034324;28;20025;-73
2021/08/16 06:44:14;;;;;;;12.05;9.85;;;;;;;;;;5034169;28;20041;-74
2021/08/16 06:46:40;;;;;;;13.77;9.65;;;;;;;;;;5033768;28;20037;-74
2021/08/16 06:49:06;;;;;;;11.80;8.55;;;;;;;;;;5034818;28;20361;-74
2021/08/16 06:51:32;;;;;;;16.60;9.35;;;;;;;;;;5034145;28;20068;-76
2021/08/16 06:53:59;;;;;;;9.40;8.35;;;;;;;;;;5034641;28;20026;-77
2021/08/16 12:37:02;;;;;;;11.07;7.13;;;;;;;;;;6035988;23;21712;31
2021/08/16 12:39:31;;;;;;;10.40;6.45;;;;;;;;;;4894044;29;20293;-76
2021/08/16 12:42:12;;;;;;;8.52;7.13;;;;;;;;;;4883376;29;20492;-75
2021/08/16 12:44:43;;;;;;;11.00;6.32;;;;;;;;;;4883147;29;20025;-76
2021/08/16 12:47:09;;;;;;;10.40;6.80;;;;;;;;;;4883048;29;20022;-76
2021/08/16 12:49:36;;;;;;;11.65;6.97;;;;;;;;;;4882998;29;20025;-76
2021/08/16 12:52:02;;;;;;;8.68;7.00;;;;;;;;;;4882843;29;20037;-75
2021/08/16 12:54:28;;;;;;;12.63;8.27;;;;;;;;;;4882763;29;20029;-75
2021/08/16 12:56:55;;;;;;;13.43;7.18;;;;;;;;;;4882665;29;20089;-74
2021/08/16 12:59:21;;;;;;;31.15;6.70;;;;;;;;;;4882538;29;20085;-74
2021/08/16 13:01:55;;;;;;;8.15;6.80;;;;;;;;;;4883185;29;20108;-75
2021/08/16 13:04:21;;;;;;;12.05;7.18;;;;;;;;;;4883254;29;20077;-75
2021/08/16 13:06:47;;;;;;;8.57;6.55;;;;;;;;;;4882027;29;20029;-74
2021/08/16 13:09:13;;;;;;;7.30;6.32;;;;;;;;;;4882340;29;20486;-74
2021/08/16 13:11:40;;;;;;;12.00;6.53;;;;;;;;;;4882926;29;20093;-74
2021/08/16 13:14:06;;;;;;;7.68;6.57;;;;;;;;;;4883345;29;20025;-74
2021/08/16 13:16:32;;;;;;;8.55;6.70;;;;;;;;;;4882728;29;20036;-74
2021/08/16 13:18:58;;;;;;;6.28;5.53;;;;;;;;;;4882664;29;20049;-74
2021/08/16 13:21:24;;;;;;;7.57;5.75;;;;;;;;;;4882153;29;20025;-74
2021/08/16 13:23:50;;;;;;;6.18;5.32;;;;;;;;;;4882393;29;20416;-73
2021/08/16 13:26:16;;;;;;;6.75;5.78;;;;;;;;;;4882453;29;20375;-74
2021/08/16 13:28:42;;;;;;;9.38;6.00;;;;;;;;;;4882399;29;20025;-74
2021/08/16 13:31:08;;;;;;;8.93;5.90;;;;;;;;;;4882237;29;20029;-75
2021/08/16 13:33:34;;;;;;;7.80;6.43;;;;;;;;;;4882682;29;20029;-76
2021/08/16 13:36:00;;;;;;;10.45;5.60;;;;;;;;;;4882201;29;20029;-75
2021/08/16 13:38:26;;;;;;;7.40;6.50;;;;;;;;;;4892070;29;20072;-75
2021/08/16 13:40:53;;;;;;;8.32;5.43;;;;;;;;;;4901064;29;20025;-75
2021/08/16 13:43:19;;;;;;;7.90;5.68;;;;;;;;;;4900830;29;20032;-75
2021/08/16 13:45:45;;;;;;;8.13;5.90;;;;;;;;;;4900886;29;20080;-75
2021/08/16 13:48:11;;;;;;;6.68;5.85;;;;;;;;;;4900609;29;20024;-75
2021/08/16 13:50:37;;;;;;;7.85;5.65;;;;;;;;;;4901076;29;20079;-75
2021/08/16 13:53:05;;;;;;;8.48;5.45;;;;;;;;;;4900181;29;20108;-75
2021/08/16 13:55:31;;;;;;;9.57;6.00;;;;;;;;;;4900407;29;20040;-77
2021/08/16 13:57:57;;;;;;;6.85;6.00;;;;;;;;;;4900608;29;20029;-75
2021/08/16 14:00:25;;;;;;;5.53;5.05;;;;;;;;;;4900579;29;20415;-75
2021/08/16 14:02:51;;;;;;;6.43;5.82;;;;;;;;;;4900825;29;20036;-75
2021/08/16 14:05:17;;;;;;;10.18;6.40;;;;;;;;;;4900421;29;20024;-75
2021/08/16 14:07:43;;;;;;;7.55;5.35;;;;;;;;;;4900109;29;20056;-75
2021/08/16 14:10:09;;;;;;;5.78;5.25;;;;;;;;;;4900864;29;20080;-74
2021/08/16 14:12:38;;;;;;;9.23;5.53;;;;;;;;;;4900244;29;20379;-75
2021/08/16 14:15:04;;;;;;;9.18;5.82;;;;;;;;;;4900082;29;20055;-75
2021/08/16 14:17:30;;;;;;;6.47;5.75;;;;;;;;;;4899970;29;20076;-75
2021/08/16 14:19:56;;;;;;;5.30;4.80;;;;;;;;;;4900236;29;20032;-74
2021/08/16 14:22:23;;;;;;;18.00;5.85;;;;;;;;;;4900085;29;20032;-74
2021/08/16 14:24:49;;;;;;;6.10;5.50;;;;;;;;;;4900102;29;20025;-76
2021/08/16 14:27:15;;;;;;;6.63;5.35;;;;;;;;;;4899935;29;20024;-77
2021/08/16 14:29:41;;;;;;;8.88;5.72;;;;;;;;;;4899999;29;20454;-76
2021/08/16 14:32:08;;;;;;;10.77;5.65;;;;;;;;;;4899938;29;20021;-78
2021/08/16 14:34:34;;;;;;;10.48;6.70;;;;;;;;;;4899839;29;20111;-78
2021/08/16 14:37:00;;;;;;;7.35;6.18;;;;;;;;;;4899599;29;20405;-77
2021/08/16 14:39:26;;;;;;;7.85;5.15;;;;;;;;;;4899687;29;20127;-76
2021/08/16 14:41:52;;;;;;;7.20;5.18;;;;;;;;;;4899490;29;20028;-76
2021/08/16 14:44:18;;;;;;;5.60;5.10;;;;;;;;;;4900118;29;20467;-76
2021/08/16 14:46:44;;;;;;;8.48;5.85;;;;;;;;;;4899714;29;20036;-77
2021/08/16 14:49:10;;;;;;;9.35;6.13;;;;;;;;;;4899163;29;20035;-76
2021/08/16 14:51:36;;;;;;;10.18;6.53;;;;;;;;;;4899275;29;20025;-73
2021/08/16 14:54:02;;;;;;;10.30;5.50;;;;;;;;;;4899961;29;20029;-73
2021/08/16 14:56:28;;;;;;;11.23;6.18;;;;;;;;;;4899682;29;20484;-73
2021/08/16 14:58:54;;;;;;;10.88;5.80;;;;;;;;;;4899637;29;20107;-73
2021/08/16 15:01:20;;;;;;;8.60;5.68;;;;;;;;;;4899493;29;20040;-72
2021/08/16 15:03:46;;;;;;;6.18;4.78;;;;;;;;;;4899617;29;20485;-74
2021/08/16 15:06:13;;;;;;;8.27;5.85;;;;;;;;;;4899420;29;20036;-74
2021/08/16 15:08:39;;;;;;;5.30;4.85;;;;;;;;;;4899825;29;20056;-74
2021/08/16 15:11:05;;;;;;;6.28;5.72;;;;;;;;;;4899080;29;20104;-73
2021/08/16 15:13:32;;;;;;;6.18;5.50;;;;;;;;;;4899690;29;20021;-73
2021/08/16 15:15:59;;;;;;;5.40;4.63;;;;;;;;;;4898862;29;20059;-72
2021/08/16 15:18:25;;;;;;;9.27;5.00;;;;;;;;;;4899098;29;20029;-73
2021/08/16 15:20:51;;;;;;;6.10;5.25;;;;;;;;;;4898736;29;20030;-73
2021/08/16 15:23:17;;;;;;;7.63;5.32;;;;;;;;;;4899242;29;20099;-73
2021/08/16 15:25:43;;;;;;;8.52;5.53;;;;;;;;;;4899783;29;20036;-73
2021/08/16 15:28:09;;;;;;;6.95;6.25;;;;;;;;;;4899590;29;20111;-73
2021/08/16 15:30:36;;;;;;;9.43;5.03;;;;;;;;;;4899508;29;20080;-74
2021/08/16 15:33:02;;;;;;;6.20;5.60;;;;;;;;;;4899108;29;20102;-74
2021/08/16 15:35:28;;;;;;;6.70;5.22;;;;;;;;;;4898963;29;20056;-73
2021/08/16 15:37:54;;;;;;;6.32;5.53;;;;;;;;;;4898869;29;20501;-73
2021/08/16 15:40:20;;;;;;;8.57;5.28;;;;;;;;;;4899481;29;20036;-73
2021/08/16 15:42:48;;;;;;;11.95;5.68;;;;;;;;;;4899275;29;20431;-73
2021/08/16 15:45:14;;;;;;;7.85;5.43;;;;;;;;;;4899122;29;20028;-72
2021/08/16 15:47:40;;;;;;;5.43;4.93;;;;;;;;;;4899180;29;20071;-74
2021/08/16 15:50:06;;;;;;;7.50;5.00;;;;;;;;;;4899711;29;20120;-75
2021/08/16 15:52:33;;;;;;;6.70;6.00;;;;;;;;;;4899801;29;20051;-75
2021/08/16 15:54:59;;;;;;;5.85;5.07;;;;;;;;;;4899509;29;20056;-74
2021/08/16 15:57:26;;;;;;;12.48;6.47;;;;;;;;;;4899664;29;20066;-75
2021/08/16 15:59:52;;;;;;;10.60;6.22;;;;;;;;;;4899610;29;20133;-75
2021/08/16 16:02:18;;;;;;;6.95;6.22;;;;;;;;;;4900434;29;20104;-75
2021/08/16 16:04:44;;;;;;;8.55;5.85;;;;;;;;;;4902028;29;20112;-75
2021/08/16 16:07:10;;;;;;;14.63;6.43;;;;;;;;;;4901241;29;20105;-76
2021/08/16 16:09:37;;;;;;;9.77;6.97;;;;;;;;;;4911697;29;20409;-76
2021/08/16 16:12:03;;;;;;;15.80;8.63;;;;;;;;;;4902561;29;20031;-73
2021/08/16 16:14:29;;;;;;;12.18;6.82;;;;;;;;;;4900562;29;20111;-80
2021/08/16 16:16:55;;;;;;;11.02;6.93;;;;;;;;;;4920804;29;20040;-77
2021/08/16 16:19:21;;;;;;;10.40;7.40;;;;;;;;;;4914720;29;20029;-75
2021/08/16 16:21:47;;;;;;;12.73;7.22;;;;;;;;;;4902918;29;20035;-76
2021/08/16 16:24:14;;;;;;;8.73;6.88;;;;;;;;;;4902944;29;20032;-75
2021/08/16 16:26:40;;;;;;;7.00;6.28;;;;;;;;;;4901434;29;20053;-74
2021/08/16 16:29:06;;;;;;;16.75;7.63;;;;;;;;;;4899841;29;20029;-75
2021/08/16 16:31:33;;;;;;;12.80;6.70;;;;;;;;;;4902826;29;20053;-75
2021/08/16 16:33:59;;;;;;;7.20;6.55;;;;;;;;;;4902797;29;20037;-73
2021/08/16 16:36:26;;;;;;;10.68;8.27;;;;;;;;;;4920380;29;20496;-72
2021/08/16 16:38:52;;;;;;;9.50;8.52;;;;;;;;;;4911286;29;20052;-74
2021/08/16 16:41:38;;;;;;;14.40;9.23;;;;;;;;;;4902104;29;20029;-74
2021/08/16 16:44:05;;;;;;;11.52;8.70;;;;;;;;;;4900560;29;20506;-75
2021/08/16 16:46:31;;;;;;;13.05;8.85;;;;;;;;;;4898494;29;20115;-72
2021/08/16 16:48:57;;;;;;;12.75;8.20;;;;;;;;;;4901955;29;20036;-74
2021/08/16 16:51:26;;;;;;;11.27;8.52;;;;;;;;;;4901940;29;20075;-74
2021/08/16 16:53:52;;;;;;;9.93;7.85;;;;;;;;;;4901306;29;20088;-75
2021/08/16 16:56:19;;;;;;;17.63;8.73;;;;;;;;;;4901399;29;20047;-73
2021/08/16 16:58:45;;;;;;;8.82;7.78;;;;;;;;;;4901698;29;20107;-75
2021/08/16 17:01:11;;;;;;;9.32;8.38;;;;;;;;;;4901226;29;20507;-74
2021/08/16 17:03:37;;;;;;;22.73;8.45;;;;;;;;;;4901156;29;20103;-76
2021/08/16 17:06:03;;;;;;;8.70;7.75;;;;;;;;;;4900145;29;20029;-74
2021/08/16 17:08:29;;;;;;;10.63;9.55;;;;;;;;;;4900461;29;20036;-74
2021/08/16 17:10:56;;;;;;;11.68;9.45;;;;;;;;;;4920343;29;20075;-75
2021/08/16 17:13:22;;;;;;;17.48;9.57;;;;;;;;;;4919591;29;20039;-73
2021/08/16 17:15:49;;;;;;;14.60;9.40;;;;;;;;;;4919882;29;20063;-74
2021/08/16 17:18:16;;;;;;;16.35;8.23;;;;;;;;;;4918161;29;20041;-74
2021/08/16 17:20:44;;;;;;;10.27;9.20;;;;;;;;;;4920290;29;20597;-76
2021/08/16 17:23:10;;;;;;;12.80;9.32;;;;;;;;;;4919999;29;20038;-77
2021/08/16 17:25:36;;;;;;;14.15;8.77;;;;;;;;;;4919668;29;20036;-74
2021/08/16 17:28:03;;;;;;;14.60;9.50;;;;;;;;;;4920403;29;20043;-75
2021/08/16 17:30:30;;;;;;;10.02;8.73;;;;;;;;;;4919911;29;20039;-74
2021/08/16 17:32:56;;;;;;;20.58;12.65;;;;;;;;;;4920642;29;20039;-76
2021/08/16 17:35:22;;;;;;;12.02;10.52;;;;;;;;;;4920855;29;20035;-75
2021/08/16 17:37:49;;;;;;;14.98;10.45;;;;;;;;;;4919712;29;20064;-75
2021/08/16 17:40:15;;;;;;;17.75;10.82;;;;;;;;;;4919805;29;20044;-74
2021/08/16 17:42:41;;;;;;;13.15;8.55;;;;;;;;;;4919342;29;20072;-73
2021/08/16 17:45:07;;;;;;;19.05;15.55;;;;;;;;;;4918970;29;20024;-74
2021/08/16 17:47:33;;;;;;;16.85;13.82;;;;;;;;;;4920444;29;20071;-73
2021/08/16 17:49:59;;;;;;;20.90;13.02;;;;;;;;;;4919465;29;20470;-75
2021/08/16 17:52:25;;;;;;;25.23;12.20;;;;;;;;;;4919859;29;20032;-73
2021/08/16 17:54:51;;;;;;;22.42;12.13;;;;;;;;;;4920026;29;20480;-73
2021/08/16 17:57:17;;;;;;;24.10;12.10;;;;;;;;;;4918890;29;20470;-72
2021/08/16 17:59:43;;;;;;;17.05;11.93;;;;;;;;;;4915673;29;20030;-79
2021/08/16 18:02:10;;;;;;;17.05;11.07;;;;;;;;;;4907917;29;20047;-74
2021/08/16 18:04:36;;;;;;;27.00;10.27;;;;;;;;;;4900311;29;20025;-75
2021/08/16 18:07:03;;;;;;;27.42;9.38;;;;;;;;;;4899489;29;20033;-73
2021/08/16 18:09:29;;;;;;;17.33;10.70;;;;;;;;;;4899834;29;20025;-73
2021/08/16 18:11:56;;;;;;;18.23;11.02;;;;;;;;;;4900208;29;20033;-74
2021/08/16 18:14:22;;;;;;;16.00;9.68;;;;;;;;;;4899873;29;20060;-74
2021/08/16 18:16:50;;;;;;;19.73;10.98;;;;;;;;;;4907529;29;20036;-78
2021/08/16 18:19:16;;;;;;;19.60;11.88;;;;;;;;;;4903070;29;20048;-77
2021/08/16 18:21:42;;;;;;;13.60;9.75;;;;;;;;;;4920450;29;20082;-75
2021/08/16 18:24:08;;;;;;;17.20;10.00;;;;;;;;;;4919784;29;20482;-79
2021/08/16 18:26:35;;;;;;;26.42;10.25;;;;;;;;;;4920249;29;20378;-78
2021/08/16 18:29:02;;;;;;;14.63;8.35;;;;;;;;;;4917622;29;20040;-78
2021/08/16 18:31:28;;;;;;;15.63;9.05;;;;;;;;;;4919541;29;20051;-75
2021/08/16 18:33:54;;;;;;;12.48;7.97;;;;;;;;;;4907102;29;20032;-76
2021/08/16 18:36:20;;;;;;;16.83;8.15;;;;;;;;;;4899838;29;20040;-77
2021/08/16 18:38:46;;;;;;;10.05;7.25;;;;;;;;;;4900594;29;20056;-78
2021/08/16 18:41:14;;;;;;;11.65;6.22;;;;;;;;;;4900311;29;20080;-77
2021/08/16 18:43:40;;;;;;;11.43;6.47;;;;;;;;;;4898695;29;20040;-73
2021/08/16 18:46:06;;;;;;;11.00;7.43;;;;;;;;;;4900707;29;20033;-78
2021/08/16 18:48:33;;;;;;;9.73;7.38;;;;;;;;;;4899257;29;20494;-75
2021/08/16 18:50:59;;;;;;;10.45;7.25;;;;;;;;;;4900179;29;20119;-75
2021/08/16 18:53:25;;;;;;;10.02;6.72;;;;;;;;;;4904041;29;20036;-74
2021/08/16 18:55:51;;;;;;;7.90;5.70;;;;;;;;;;4917663;29;20031;-79
2021/08/16 18:58:17;;;;;;;10.70;5.82;;;;;;;;;;4917742;29;20485;-74
2021/08/16 19:00:43;;;;;;;9.48;5.53;;;;;;;;;;4917759;29;20430;-74
2021/08/16 19:03:12;;;;;;;8.73;6.45;;;;;;;;;;4916563;29;20032;-74
2021/08/16 19:05:38;;;;;;;15.82;5.30;;;;;;;;;;4916800;29;20074;-74
2021/08/16 19:08:04;;;;;;;7.82;5.47;;;;;;;;;;4917539;29;20032;-74
2021/08/16 19:10:30;;;;;;;9.15;6.25;;;;;;;;;;4917655;29;20481;-77
2021/08/16 19:12:58;;;;;;;4.90;4.13;;;;;;;;;;4917309;29;20043;-73
2021/08/16 19:15:24;;;;;;;8.43;6.18;;;;;;;;;;4917291;29;20025;-73
2021/08/16 19:17:50;;;;;;;7.07;4.30;;;;;;;;;;4916878;29;20036;-74
2021/08/16 19:20:16;;;;;;;10.68;5.13;;;;;;;;;;4916673;29;20466;-74
2021/08/16 19:22:42;;;;;;;7.30;4.50;;;;;;;;;;4916919;29;20027;-73
2021/08/16 19:25:09;;;;;;;13.90;4.53;;;;;;;;;;4917137;29;20031;-72
2021/08/16 19:27:35;;;;;;;6.32;4.50;;;;;;;;;;4918120;29;20071;-72
2021/08/16 19:30:01;;;;;;;6.25;4.97;;;;;;;;;;4916943;29;20482;-74
2021/08/16 19:32:27;;;;;;;7.70;5.03;;;;;;;;;;4917192;29;20032;-75
2021/08/16 19:34:53;;;;;;;8.35;4.72;;;;;;;;;;4916889;29;20025;-74
2021/08/16 19:37:21;;;;;;;9.52;5.25;;;;;;;;;;4915268;29;20666;-74
2021/08/16 19:39:47;;;;;;;9.23;5.05;;;;;;;;;;4916730;29;20032;-76
2021/08/16 19:42:13;;;;;;;7.93;3.72;;;;;;;;;;4917387;29;20070;-76
2021/08/16 19:44:39;;;;;;;6.80;4.93;;;;;;;;;;4918523;29;20411;-76
2021/08/16 19:47:05;;;;;;;4.28;3.88;;;;;;;;;;4917807;29;20032;-77
2021/08/16 19:49:32;;;;;;;8.68;4.85;;;;;;;;;;4917464;29;20477;-77
2021/08/16 19:51:58;;;;;;;7.03;4.72;;;;;;;;;;4917173;29;20115;-76
2021/08/16 19:54:24;;;;;;;13.35;3.92;;;;;;;;;;4916988;29;20125;-76
2021/08/16 19:56:50;;;;;;;5.95;3.97;;;;;;;;;;4917100;29;20032;-77
2021/08/16 19:59:16;;;;;;;7.70;4.75;;;;;;;;;;4917107;29;20032;-74
2021/08/16 20:01:42;;;;;;;6.90;4.47;;;;;;;;;;4916953;29;20031;-74
2021/08/16 20:04:08;;;;;;;7.60;4.03;;;;;;;;;;4917066;29;20056;-76
2021/08/16 20:06:34;;;;;;;9.57;4.40;;;;;;;;;;4917064;29;20039;-74
2021/08/16 20:09:00;;;;;;;10.93;4.82;;;;;;;;;;4917263;29;20523;-75